Time;durP1;ratioP1;P1;durP2;ratioP2;P2;SDS_P1;SDS_P2;PMS_P1;PMS_P2;Temp;Humidity;BMP_temperature;BMP_pressure;BME280_temperature;BME280_humidity;BME280_pressure;Samples;Min_cycle;Max_cycle;Signal;HPM_P1;HPM_P2
2024/01/24 00:01:31;;;;;;;99.15;93.95;;;;;;;;;;5032142;28;20053;-59
2024/01/24 00:03:56;;;;;;;104.72;99.53;;;;;;;;;;5032544;28;20041;-58
2024/01/24 00:06:21;;;;;;;103.78;98.60;;;;;;;;;;5028176;28;20025;-60
2024/01/24 00:08:48;;;;;;;102.70;97.40;;;;;;;;;;5033870;28;20041;-58
2024/01/24 00:11:13;;;;;;;103.80;98.35;;;;;;;;;;5032462;28;20463;-59
2024/01/24 00:13:39;;;;;;;100.50;95.35;;;;;;;;;;5032016;28;20048;-59
2024/01/24 00:16:04;;;;;;;101.00;95.95;;;;;;;;;;5032197;28;20037;-58
2024/01/24 00:18:29;;;;;;;105.35;99.93;;;;;;;;;;5029609;28;20056;-59
2024/01/24 00:20:55;;;;;;;103.05;97.93;;;;;;;;;;5031220;28;20474;-59
2024/01/24 00:23:20;;;;;;;109.00;103.43;;;;;;;;;;5031432;28;20594;-59
2024/01/24 00:25:46;;;;;;;100.95;95.97;;;;;;;;;;5030345;28;20055;-58
2024/01/24 00:28:14;;;;;;;99.70;94.78;;;;;;;;;;5030122;28;20033;-59
2024/01/24 00:30:40;;;;;;;105.22;100.03;;;;;;;;;;5033094;28;20098;-59
2024/01/24 00:33:05;;;;;;;107.13;101.75;;;;;;;;;;5031762;28;20116;-59
2024/01/24 00:35:30;;;;;;;99.40;94.47;;;;;;;;;;5031513;28;20047;-59
2024/01/24 00:37:56;;;;;;;103.80;98.55;;;;;;;;;;5034958;28;20084;-59
2024/01/24 00:40:22;;;;;;;108.97;103.43;;;;;;;;;;5035030;28;20617;-59
2024/01/24 00:42:47;;;;;;;102.43;97.35;;;;;;;;;;5021358;28;20142;-58
2024/01/24 00:45:13;;;;;;;103.93;98.80;;;;;;;;;;5035474;28;20030;-59
2024/01/24 00:47:39;;;;;;;101.32;96.10;;;;;;;;;;5035790;28;20025;-58
2024/01/24 00:50:06;;;;;;;103.50;98.30;;;;;;;;;;5034682;28;20297;-58
2024/01/24 00:52:32;;;;;;;106.57;100.70;;;;;;;;;;5035867;28;20049;-59
2024/01/24 00:54:58;;;;;;;104.50;99.32;;;;;;;;;;5037481;28;20048;-58
2024/01/24 00:57:23;;;;;;;104.80;99.57;;;;;;;;;;5034385;28;20375;-57
2024/01/24 00:59:48;;;;;;;107.38;102.05;;;;;;;;;;5034443;28;20036;-57
2024/01/24 01:02:14;;;;;;;109.45;103.90;;;;;;;;;;5036676;28;20032;-59
2024/01/24 01:04:39;;;;;;;114.43;108.65;;;;;;;;;;5037622;28;20037;-59
2024/01/24 01:07:04;;;;;;;110.22;104.63;;;;;;;;;;5031926;28;20406;-58
2024/01/24 01:09:29;;;;;;;119.22;113.32;;;;;;;;;;5037479;28;20041;-57
2024/01/24 01:11:55;;;;;;;113.57;107.72;;;;;;;;;;5034694;28;20049;-58
2024/01/24 01:14:20;;;;;;;104.47;99.35;;;;;;;;;;5032842;28;20042;-58
2024/01/24 01:16:45;;;;;;;105.03;99.68;;;;;;;;;;5035681;28;20034;-57
2024/01/24 01:19:11;;;;;;;113.60;107.95;;;;;;;;;;5035799;28;20033;-56
2024/01/24 01:21:37;;;;;;;110.13;104.65;;;;;;;;;;5032259;28;20029;-57
2024/01/24 01:24:03;;;;;;;117.85;112.00;;;;;;;;;;5032192;28;20037;-57
2024/01/24 01:26:31;;;;;;;116.32;110.47;;;;;;;;;;5034013;28;20355;-57
2024/01/24 01:28:57;;;;;;;112.95;107.35;;;;;;;;;;5034552;28;20041;-58
2024/01/24 01:31:22;;;;;;;127.38;121.07;;;;;;;;;;5035711;28;20026;-57
2024/01/24 01:33:47;;;;;;;121.85;115.78;;;;;;;;;;5033467;28;20033;-57
2024/01/24 01:36:12;;;;;;;117.05;111.22;;;;;;;;;;5033767;28;20044;-59
2024/01/24 01:38:38;;;;;;;122.03;115.90;;;;;;;;;;5034668;28;20059;-58
2024/01/24 01:41:04;;;;;;;122.72;116.65;;;;;;;;;;5030762;28;20047;-57
2024/01/24 01:43:29;;;;;;;119.32;113.35;;;;;;;;;;5034918;28;20033;-58
2024/01/24 01:45:59;;;;;;;112.70;107.05;;;;;;;;;;5036211;28;20048;-57
2024/01/24 01:48:27;;;;;;;114.85;109.10;;;;;;;;;;5033842;28;20041;-57
2024/01/24 01:50:53;;;;;;;113.70;108.07;;;;;;;;;;5034909;28;20451;-57
2024/01/24 01:53:19;;;;;;;120.22;114.18;;;;;;;;;;5039020;28;20044;-57
2024/01/24 01:55:45;;;;;;;121.18;115.13;;;;;;;;;;5033634;28;20135;-57
2024/01/24 01:58:10;;;;;;;121.22;115.03;;;;;;;;;;5033967;28;20131;-57
2024/01/24 02:00:37;;;;;;;124.43;118.28;;;;;;;;;;5033177;28;20470;-58
2024/01/24 02:03:03;;;;;;;125.93;119.68;;;;;;;;;;5033948;28;20088;-58
2024/01/24 02:05:28;;;;;;;119.15;113.22;;;;;;;;;;5032400;28;20057;-58
2024/01/24 02:07:53;;;;;;;119.57;113.63;;;;;;;;;;5029168;28;20028;-59
2024/01/24 02:10:19;;;;;;;119.13;113.20;;;;;;;;;;5036307;28;20057;-59
2024/01/24 02:12:44;;;;;;;118.85;112.57;;;;;;;;;;5034135;28;20080;-59
2024/01/24 02:15:10;;;;;;;120.55;114.57;;;;;;;;;;5032818;28;20044;-60
2024/01/24 02:17:35;;;;;;;117.18;111.35;;;;;;;;;;5032931;28;20046;-59
2024/01/24 02:20:01;;;;;;;112.28;106.72;;;;;;;;;;5034373;28;20203;-58
2024/01/24 02:22:27;;;;;;;108.35;103.00;;;;;;;;;;5033522;28;20488;-58
2024/01/24 02:24:52;;;;;;;108.47;103.13;;;;;;;;;;5035057;28;20120;-57
2024/01/24 02:27:17;;;;;;;101.53;96.53;;;;;;;;;;5034473;28;20175;-58
2024/01/24 02:29:43;;;;;;;98.70;93.75;;;;;;;;;;5034062;28;20040;-57
2024/01/24 02:32:09;;;;;;;97.35;92.53;;;;;;;;;;5035157;28;20052;-58
2024/01/24 02:34:34;;;;;;;99.35;94.30;;;;;;;;;;5034000;28;20037;-58
2024/01/24 02:36:59;;;;;;;98.03;93.15;;;;;;;;;;5033936;28;20474;-58
2024/01/24 02:39:25;;;;;;;94.10;89.45;;;;;;;;;;5034602;28;20068;-56
2024/01/24 02:41:50;;;;;;;93.93;89.28;;;;;;;;;;5034802;28;20558;-58
2024/01/24 02:44:15;;;;;;;90.45;85.95;;;;;;;;;;5032733;28;20033;-57
2024/01/24 02:46:40;;;;;;;90.72;86.20;;;;;;;;;;5031924;28;20033;-58
2024/01/24 02:49:06;;;;;;;82.70;78.60;;;;;;;;;;5033874;28;20115;-58
2024/01/24 02:51:31;;;;;;;85.35;81.13;;;;;;;;;;5033256;28;20102;-57
2024/01/24 02:53:56;;;;;;;83.35;78.15;;;;;;;;;;5035557;28;20085;-58
2024/01/24 02:56:22;;;;;;;84.05;79.85;;;;;;;;;;5034295;28;20044;-58
2024/01/24 02:58:47;;;;;;;77.78;73.90;;;;;;;;;;5034312;28;20043;-57
2024/01/24 03:01:14;;;;;;;83.57;79.43;;;;;;;;;;5033344;28;20024;-58
2024/01/24 03:03:40;;;;;;;78.45;74.57;;;;;;;;;;5035046;28;20059;-58
2024/01/24 03:06:06;;;;;;;74.32;70.63;;;;;;;;;;5033003;28;20475;-58
2024/01/24 03:08:46;;;;;;;76.22;72.45;;;;;;;;;;5031411;28;20056;-57
2024/01/24 03:11:11;;;;;;;70.77;67.23;;;;;;;;;;5031262;28;20052;-57
2024/01/24 03:13:37;;;;;;;70.28;66.75;;;;;;;;;;5030951;28;20280;-58
2024/01/24 03:16:03;;;;;;;67.93;64.53;;;;;;;;;;5036336;28;20116;-59
2024/01/24 03:18:28;;;;;;;65.97;62.58;;;;;;;;;;5033664;28;20108;-58
2024/01/24 03:20:54;;;;;;;68.57;65.18;;;;;;;;;;5031514;28;20079;-57
2024/01/24 03:23:20;;;;;;;64.25;60.97;;;;;;;;;;5031778;28;20035;-57
2024/01/24 03:25:45;;;;;;;64.80;61.55;;;;;;;;;;5030664;28;20037;-58
2024/01/24 03:28:11;;;;;;;63.25;60.08;;;;;;;;;;5034816;28;20382;-58
2024/01/24 03:30:36;;;;;;;63.78;60.60;;;;;;;;;;5032993;28;20530;-58
2024/01/24 03:33:03;;;;;;;59.90;56.90;;;;;;;;;;5031419;28;20128;-58
2024/01/24 03:35:29;;;;;;;63.20;60.05;;;;;;;;;;5029903;28;20029;-58
2024/01/24 03:37:54;;;;;;;64.15;60.95;;;;;;;;;;5034445;28;20372;-58
2024/01/24 03:40:19;;;;;;;60.55;57.53;;;;;;;;;;5032324;28;20068;-57
2024/01/24 03:42:44;;;;;;;60.17;57.15;;;;;;;;;;5028646;28;20037;-58
2024/01/24 03:45:10;;;;;;;58.38;55.45;;;;;;;;;;5031750;28;20184;-58
2024/01/24 03:47:35;;;;;;;60.10;57.08;;;;;;;;;;5031992;28;20131;-57
2024/01/24 03:50:00;;;;;;;60.22;57.20;;;;;;;;;;5031471;28;20304;-59
2024/01/24 03:52:26;;;;;;;62.35;59.20;;;;;;;;;;5032841;28;20052;-57
2024/01/24 03:54:51;;;;;;;66.00;62.70;;;;;;;;;;5037078;28;20053;-58
2024/01/24 03:57:16;;;;;;;61.50;58.42;;;;;;;;;;5028203;28;20120;-58
2024/01/24 03:59:42;;;;;;;61.65;58.58;;;;;;;;;;5031162;28;20494;-58
2024/01/24 04:02:07;;;;;;;64.95;61.72;;;;;;;;;;5030872;28;20431;-57
2024/01/24 04:04:33;;;;;;;64.93;60.42;;;;;;;;;;5031309;28;20033;-58
2024/01/24 04:06:58;;;;;;;60.53;57.45;;;;;;;;;;5033244;28;20108;-57
2024/01/24 04:09:24;;;;;;;61.08;58.00;;;;;;;;;;5032534;28;20056;-58
2024/01/24 04:11:49;;;;;;;62.33;59.08;;;;;;;;;;5031495;28;20535;-58
2024/01/24 04:14:14;;;;;;;59.40;56.42;;;;;;;;;;5033459;28;20034;-57
2024/01/24 04:16:40;;;;;;;58.60;55.65;;;;;;;;;;5034069;28;20033;-57
2024/01/24 04:19:05;;;;;;;58.38;55.42;;;;;;;;;;5034588;28;20029;-57
2024/01/24 04:21:30;;;;;;;61.30;58.22;;;;;;;;;;5035529;28;20032;-58
2024/01/24 04:23:55;;;;;;;63.67;60.50;;;;;;;;;;5036909;28;20314;-57
2024/01/24 04:26:22;;;;;;;62.08;58.95;;;;;;;;;;5032140;28;20046;-57
2024/01/24 04:28:47;;;;;;;65.15;61.88;;;;;;;;;;5034346;28;20095;-58
2024/01/24 04:31:12;;;;;;;73.57;69.90;;;;;;;;;;5036356;28;20041;-58
2024/01/24 04:33:37;;;;;;;70.68;67.15;;;;;;;;;;5035426;28;20037;-57
2024/01/24 04:36:03;;;;;;;69.55;66.07;;;;;;;;;;5036643;28;20539;-57
2024/01/24 04:38:28;;;;;;;67.20;63.85;;;;;;;;;;5036008;28;20028;-57
2024/01/24 04:40:54;;;;;;;69.10;65.65;;;;;;;;;;5034524;28;20037;-59
2024/01/24 04:43:19;;;;;;;72.22;68.63;;;;;;;;;;5037286;28;20574;-57
2024/01/24 04:45:45;;;;;;;79.22;75.28;;;;;;;;;;5034298;28;20096;-58
2024/01/24 04:48:11;;;;;;;80.63;76.63;;;;;;;;;;5035759;28;20716;-58
2024/01/24 04:50:37;;;;;;;79.05;75.13;;;;;;;;;;5035824;28;20124;-57
2024/01/24 04:53:02;;;;;;;83.85;79.68;;;;;;;;;;5035438;28;20042;-58
2024/01/24 04:55:28;;;;;;;94.60;89.90;;;;;;;;;;5034516;28;20037;-58
2024/01/24 04:57:53;;;;;;;88.75;84.35;;;;;;;;;;5036397;28;20087;-58
2024/01/24 05:00:18;;;;;;;97.80;92.95;;;;;;;;;;5033568;28;20425;-58
2024/01/24 05:02:44;;;;;;;95.35;90.60;;;;;;;;;;5033497;28;20437;-56
2024/01/24 05:05:10;;;;;;;101.38;96.35;;;;;;;;;;5037422;28;20067;-58
2024/01/24 05:07:36;;;;;;;109.07;103.68;;;;;;;;;;5034009;28;20463;-58
2024/01/24 05:10:03;;;;;;;115.70;109.97;;;;;;;;;;5029713;28;20048;-59
2024/01/24 05:12:29;;;;;;;122.70;116.63;;;;;;;;;;5033666;28;20036;-58
2024/01/24 05:14:54;;;;;;;128.13;121.75;;;;;;;;;;5032741;28;20771;-58
2024/01/24 05:17:19;;;;;;;136.50;129.70;;;;;;;;;;5036011;28;20036;-59
2024/01/24 05:19:45;;;;;;;145.18;137.98;;;;;;;;;;5035232;28;20025;-58
2024/01/24 05:22:10;;;;;;;138.70;131.75;;;;;;;;;;5034545;28;20106;-58
2024/01/24 05:24:35;;;;;;;137.18;130.32;;;;;;;;;;5032921;28;20037;-58
2024/01/24 05:27:01;;;;;;;148.85;141.48;;;;;;;;;;5036378;28;20695;-58
2024/01/24 05:29:26;;;;;;;137.88;130.98;;;;;;;;;;5033677;28;20657;-58
2024/01/24 05:31:51;;;;;;;141.48;134.48;;;;;;;;;;5036327;28;20025;-57
2024/01/24 05:34:17;;;;;;;142.82;135.70;;;;;;;;;;5034846;28;20064;-56
2024/01/24 05:36:42;;;;;;;141.95;134.88;;;;;;;;;;5032420;28;20030;-57
2024/01/24 05:39:08;;;;;;;144.80;137.57;;;;;;;;;;5035950;28;20421;-55
2024/01/24 05:41:33;;;;;;;159.85;151.90;;;;;;;;;;5033609;28;20029;-56
2024/01/24 05:43:59;;;;;;;141.73;134.68;;;;;;;;;;5036628;28;20037;-56
2024/01/24 05:46:25;;;;;;;145.93;138.65;;;;;;;;;;5035619;28;20378;-58
2024/01/24 05:48:50;;;;;;;138.85;131.90;;;;;;;;;;5034405;28;20102;-58
2024/01/24 05:51:15;;;;;;;140.45;133.45;;;;;;;;;;5034820;28;20044;-57
2024/01/24 05:53:41;;;;;;;140.50;133.50;;;;;;;;;;5033919;28;20033;-58
2024/01/24 05:56:07;;;;;;;139.85;132.88;;;;;;;;;;5034896;28;20415;-58
2024/01/24 05:58:33;;;;;;;141.23;134.20;;;;;;;;;;5032065;28;20037;-57
2024/01/24 06:00:58;;;;;;;148.40;141.05;;;;;;;;;;5033628;28;20037;-57
2024/01/24 06:03:23;;;;;;;137.95;131.05;;;;;;;;;;5036136;28;20484;-58
2024/01/24 06:05:49;;;;;;;139.80;132.85;;;;;;;;;;5033740;28;20034;-57
2024/01/24 06:08:14;;;;;;;143.07;135.90;;;;;;;;;;5033171;28;20041;-57
2024/01/24 06:10:40;;;;;;;143.48;136.32;;;;;;;;;;5032159;28;20151;-58
2024/01/24 06:13:05;;;;;;;144.57;137.35;;;;;;;;;;5032350;28;20046;-57
2024/01/24 06:15:30;;;;;;;153.10;145.48;;;;;;;;;;5035570;28;21168;-58
2024/01/24 06:17:56;;;;;;;144.15;136.98;;;;;;;;;;5030737;28;20518;-58
2024/01/24 06:20:21;;;;;;;144.75;137.52;;;;;;;;;;5035012;28;20029;-58
2024/01/24 06:22:46;;;;;;;136.32;129.50;;;;;;;;;;5033815;28;20076;-58
2024/01/24 06:25:13;;;;;;;153.27;145.63;;;;;;;;;;5034479;28;20025;-57
2024/01/24 06:27:39;;;;;;;154.45;146.77;;;;;;;;;;5031817;28;20634;-58
2024/01/24 06:30:05;;;;;;;152.00;144.43;;;;;;;;;;5033612;28;20075;-58
2024/01/24 06:32:31;;;;;;;146.18;138.90;;;;;;;;;;5035070;28;20025;-58
2024/01/24 06:34:56;;;;;;;145.60;138.32;;;;;;;;;;5031877;28;20340;-57
2024/01/24 06:37:21;;;;;;;148.20;140.80;;;;;;;;;;5032217;28;20107;-55
2024/01/24 06:39:46;;;;;;;137.48;130.63;;;;;;;;;;5031076;28;20099;-58
2024/01/24 06:42:12;;;;;;;144.07;136.88;;;;;;;;;;5035107;28;20036;-58
2024/01/24 06:44:37;;;;;;;134.60;127.90;;;;;;;;;;5032794;28;20043;-57
2024/01/24 06:47:03;;;;;;;136.85;129.90;;;;;;;;;;5034960;28;20037;-57
2024/01/24 06:49:28;;;;;;;145.20;137.95;;;;;;;;;;5031948;28;20116;-58
2024/01/24 06:51:53;;;;;;;137.65;130.77;;;;;;;;;;5031613;28;20048;-58
2024/01/24 06:54:18;;;;;;;145.73;138.40;;;;;;;;;;5033960;28;20040;-58
2024/01/24 06:56:44;;;;;;;136.38;129.60;;;;;;;;;;5031260;28;20029;-57
2024/01/24 06:59:11;;;;;;;137.02;130.20;;;;;;;;;;5032248;28;20806;-58
2024/01/24 07:01:36;;;;;;;151.13;143.57;;;;;;;;;;5032500;28;20478;-58
2024/01/24 07:04:02;;;;;;;143.63;136.45;;;;;;;;;;5033157;28;20079;-59
2024/01/24 07:06:28;;;;;;;154.25;146.57;;;;;;;;;;5034180;28;20466;-58
2024/01/24 07:08:53;;;;;;;159.43;151.15;;;;;;;;;;5035759;28;20048;-58
2024/01/24 07:11:19;;;;;;;138.43;131.43;;;;;;;;;;5033261;28;20025;-57
2024/01/24 07:13:44;;;;;;;141.20;134.07;;;;;;;;;;5036841;28;20560;-57
2024/01/24 07:16:09;;;;;;;147.63;140.25;;;;;;;;;;5034875;28;21129;-57
2024/01/24 07:18:35;;;;;;;152.65;144.98;;;;;;;;;;5035429;28;20120;-58
2024/01/24 07:21:00;;;;;;;151.60;144.00;;;;;;;;;;5035342;28;20043;-58
2024/01/24 07:23:26;;;;;;;147.07;139.70;;;;;;;;;;5034440;28;20045;-57
2024/01/24 07:25:51;;;;;;;146.88;139.50;;;;;;;;;;5033632;28;20055;-58
2024/01/24 07:28:18;;;;;;;144.15;136.95;;;;;;;;;;5033612;28;20069;-58
2024/01/24 07:30:44;;;;;;;146.30;139.02;;;;;;;;;;5034018;28;20058;-58
2024/01/24 07:33:09;;;;;;;146.27;138.82;;;;;;;;;;5033121;28;20032;-58
2024/01/24 07:35:35;;;;;;;142.68;135.52;;;;;;;;;;5035139;28;20053;-57
2024/01/24 07:38:00;;;;;;;135.98;129.20;;;;;;;;;;5031687;28;20123;-58
2024/01/24 07:40:26;;;;;;;146.15;138.88;;;;;;;;;;5035601;28;20115;-59
2024/01/24 07:42:52;;;;;;;147.38;140.05;;;;;;;;;;5034149;28;20060;-58
2024/01/24 07:45:18;;;;;;;153.45;145.82;;;;;;;;;;5032408;28;20052;-57
2024/01/24 07:47:44;;;;;;;155.45;147.70;;;;;;;;;;5032085;28;20040;-57
2024/01/24 07:50:11;;;;;;;175.48;166.80;;;;;;;;;;5032787;28;20124;-57
2024/01/24 07:52:37;;;;;;;176.15;167.40;;;;;;;;;;5030528;28;20052;-57
2024/01/24 07:55:02;;;;;;;169.93;161.40;;;;;;;;;;5031176;28;20049;-57
2024/01/24 07:57:28;;;;;;;164.57;156.32;;;;;;;;;;5033868;28;20036;-57
2024/01/24 07:59:53;;;;;;;166.38;158.10;;;;;;;;;;5032384;28;20036;-56
2024/01/24 08:02:18;;;;;;;156.48;148.32;;;;;;;;;;5035240;28;20524;-57
2024/01/24 08:04:43;;;;;;;153.13;145.43;;;;;;;;;;5030459;28;20458;-57
2024/01/24 08:07:09;;;;;;;150.82;143.25;;;;;;;;;;5035010;28;20336;-58
2024/01/24 08:09:34;;;;;;;155.18;147.23;;;;;;;;;;5033545;28;20505;-57
2024/01/24 08:12:00;;;;;;;141.82;134.75;;;;;;;;;;5031291;28;20119;-57
2024/01/24 08:14:25;;;;;;;130.32;123.82;;;;;;;;;;5034588;28;20049;-57
2024/01/24 08:17:01;;;;;;;123.97;117.82;;;;;;;;;;5034123;28;20044;-57
2024/01/24 08:19:27;;;;;;;109.13;103.72;;;;;;;;;;5032534;28;20029;-58
2024/01/24 08:21:53;;;;;;;106.20;100.95;;;;;;;;;;5034857;28;20094;-57
2024/01/24 08:24:18;;;;;;;95.80;91.05;;;;;;;;;;5035183;28;20123;-56
2024/01/24 08:26:44;;;;;;;84.28;80.07;;;;;;;;;;5035207;28;20029;-57
2024/01/24 08:29:09;;;;;;;77.53;73.68;;;;;;;;;;5031721;28;20037;-57
2024/01/24 08:31:34;;;;;;;74.07;70.40;;;;;;;;;;5034371;28;20585;-56
2024/01/24 08:34:00;;;;;;;71.00;67.47;;;;;;;;;;5032031;28;20029;-57
2024/01/24 08:36:25;;;;;;;62.00;58.90;;;;;;;;;;5035032;28;20034;-57
2024/01/24 08:38:50;;;;;;;62.13;59.03;;;;;;;;;;5032128;28;20458;-58
2024/01/24 08:41:16;;;;;;;59.72;56.72;;;;;;;;;;5031372;28;20039;-57
2024/01/24 08:43:41;;;;;;;57.15;54.28;;;;;;;;;;5032500;28;20456;-57
2024/01/24 08:46:06;;;;;;;56.72;53.63;;;;;;;;;;5033635;28;20099;-57
2024/01/24 08:48:31;;;;;;;57.67;54.78;;;;;;;;;;5033435;28;20391;-57
2024/01/24 08:50:57;;;;;;;75.80;72.05;;;;;;;;;;5031780;28;20662;-57
2024/01/24 08:53:22;;;;;;;79.38;75.45;;;;;;;;;;5031797;28;20531;-57
2024/01/24 08:55:47;;;;;;;70.45;66.93;;;;;;;;;;5033867;28;20069;-57
2024/01/24 08:58:13;;;;;;;52.10;49.50;;;;;;;;;;5034441;28;20025;-56
2024/01/24 09:00:38;;;;;;;50.97;48.38;;;;;;;;;;5034354;28;20039;-56
2024/01/24 09:03:04;;;;;;;50.92;48.35;;;;;;;;;;5033546;28;20036;-56
2024/01/24 09:05:29;;;;;;;48.25;45.85;;;;;;;;;;5036871;28;20465;-56
2024/01/24 09:07:54;;;;;;;43.03;40.83;;;;;;;;;;5037467;28;20037;-56
2024/01/24 09:10:20;;;;;;;45.80;43.50;;;;;;;;;;5035821;28;20385;-57
2024/01/24 09:12:45;;;;;;;46.05;43.75;;;;;;;;;;5035696;28;20045;-57
2024/01/24 09:15:10;;;;;;;41.03;38.92;;;;;;;;;;5034282;28;20090;-57
2024/01/24 09:17:36;;;;;;;40.42;38.35;;;;;;;;;;5032184;28;20125;-56
2024/01/24 09:20:02;;;;;;;39.42;37.42;;;;;;;;;;5038358;28;20029;-55
2024/01/24 09:22:27;;;;;;;34.13;32.33;;;;;;;;;;5037059;28;20370;-52
2024/01/24 09:24:53;;;;;;;35.03;33.22;;;;;;;;;;5036220;28;20021;-55
2024/01/24 09:27:18;;;;;;;30.63;29.02;;;;;;;;;;5037374;28;20025;-52
2024/01/24 09:29:43;;;;;;;31.90;30.27;;;;;;;;;;5036289;28;20577;-57
2024/01/24 09:32:09;;;;;;;33.85;32.10;;;;;;;;;;5036816;28;20854;-53
2024/01/24 09:34:34;;;;;;;31.45;29.85;;;;;;;;;;5037091;28;20030;-56
2024/01/24 09:37:00;;;;;;;38.70;36.70;;;;;;;;;;5033315;28;20041;-61
2024/01/24 09:39:26;;;;;;;44.42;42.17;;;;;;;;;;5035636;28;20034;-65
2024/01/24 09:41:52;;;;;;;43.65;41.45;;;;;;;;;;5049340;28;20462;-65
2024/01/24 09:44:19;;;;;;;44.97;42.58;;;;;;;;;;5031741;28;20115;-66
2024/01/24 09:46:47;;;;;;;44.00;41.78;;;;;;;;;;5033918;28;20028;-64
2024/01/24 09:49:14;;;;;;;36.08;34.22;;;;;;;;;;5033977;28;20056;-64
2024/01/24 09:51:41;;;;;;;36.97;35.00;;;;;;;;;;5037462;28;20032;-64
2024/01/24 09:54:07;;;;;;;36.17;34.28;;;;;;;;;;5034283;28;20454;-65
2024/01/24 09:56:35;;;;;;;34.75;32.95;;;;;;;;;;5033097;28;20048;-65
2024/01/24 09:59:02;;;;;;;35.45;33.50;;;;;;;;;;5039346;28;20032;-65
2024/01/24 10:01:31;;;;;;;32.08;30.38;;;;;;;;;;5037285;28;20474;-65
2024/01/24 10:03:58;;;;;;;31.05;29.45;;;;;;;;;;5032111;28;20115;-66
2024/01/24 10:06:24;;;;;;;30.20;28.60;;;;;;;;;;5035387;28;20123;-65
2024/01/24 10:08:49;;;;;;;30.60;28.77;;;;;;;;;;5034455;28;20033;-67
2024/01/24 10:11:14;;;;;;;29.13;27.50;;;;;;;;;;5032761;28;20040;-65
2024/01/24 10:13:40;;;;;;;28.52;27.02;;;;;;;;;;5033969;28;20044;-66
2024/01/24 10:16:07;;;;;;;27.15;25.70;;;;;;;;;;5034412;28;20052;-65
2024/01/24 10:18:33;;;;;;;28.38;26.83;;;;;;;;;;5034269;28;20038;-65
2024/01/24 10:20:58;;;;;;;27.88;26.38;;;;;;;;;;5036637;28;20025;-65
2024/01/24 10:23:24;;;;;;;27.52;25.88;;;;;;;;;;5038549;28;20032;-65
2024/01/24 10:25:50;;;;;;;28.88;27.23;;;;;;;;;;5035245;28;20086;-65
2024/01/24 10:28:16;;;;;;;29.17;27.48;;;;;;;;;;5033209;28;20034;-65
2024/01/24 10:30:43;;;;;;;28.73;27.13;;;;;;;;;;5035254;28;20065;-65
2024/01/24 10:33:12;;;;;;;28.15;26.50;;;;;;;;;;5033104;28;20025;-63
2024/01/24 10:35:38;;;;;;;27.65;26.15;;;;;;;;;;5034482;28;20032;-58
2024/01/24 10:38:05;;;;;;;27.55;25.60;;;;;;;;;;5032240;28;20972;-58
2024/01/24 10:40:30;;;;;;;28.48;26.98;;;;;;;;;;5031469;28;20047;-59
2024/01/24 10:43:02;;;;;;;29.27;27.60;;;;;;;;;;5034218;28;20032;-58
2024/01/24 10:45:31;;;;;;;30.02;28.05;;;;;;;;;;5031596;28;20505;-57
2024/01/24 10:47:58;;;;;;;30.65;29.02;;;;;;;;;;5035312;28;20044;-58
2024/01/24 10:50:25;;;;;;;33.70;31.80;;;;;;;;;;5033794;28;20483;-58
2024/01/24 10:52:53;;;;;;;28.60;27.08;;;;;;;;;;5033747;28;20864;-57
2024/01/24 10:55:20;;;;;;;31.67;29.98;;;;;;;;;;5032545;28;20033;-59
2024/01/24 10:57:47;;;;;;;33.17;31.40;;;;;;;;;;5032198;28;20033;-57
2024/01/24 11:00:15;;;;;;;29.30;27.70;;;;;;;;;;5033787;28;20037;-58
2024/01/24 11:02:41;;;;;;;32.13;30.42;;;;;;;;;;5035978;28;21037;-58
2024/01/24 11:05:42;;;;;;;29.95;28.25;;;;;;;;;;5035217;28;20033;-58
2024/01/24 11:08:11;;;;;;;34.08;32.28;;;;;;;;;;5030653;28;20056;-57
2024/01/24 11:10:40;;;;;;;30.40;28.70;;;;;;;;;;5035455;28;20072;-57
2024/01/24 11:13:07;;;;;;;28.98;27.23;;;;;;;;;;5034008;28;20046;-58
2024/01/24 11:15:33;;;;;;;30.10;28.30;;;;;;;;;;5034835;28;20182;-59
2024/01/24 11:18:21;;;;;;;33.28;31.52;;;;;;;;;;5032285;28;20058;-58
2024/01/24 11:20:56;;;;;;;32.83;30.48;;;;;;;;;;5038547;28;20115;-56
2024/01/24 11:23:42;;;;;;;29.58;28.00;;;;;;;;;;5032784;28;20317;-58
2024/01/24 11:26:09;;;;;;;28.60;27.05;;;;;;;;;;5033274;28;20098;-58
2024/01/24 11:28:35;;;;;;;29.80;28.17;;;;;;;;;;5034977;28;20033;-58
2024/01/24 11:31:00;;;;;;;31.90;30.20;;;;;;;;;;5034919;28;20689;-58
2024/01/24 11:33:26;;;;;;;28.63;27.02;;;;;;;;;;5029577;28;20037;-58
2024/01/24 11:35:53;;;;;;;29.60;27.80;;;;;;;;;;5031940;28;20025;-58
2024/01/24 11:38:22;;;;;;;33.15;31.25;;;;;;;;;;5032399;28;20025;-55
2024/01/24 11:40:51;;;;;;;29.52;27.92;;;;;;;;;;5031791;28;20226;-58
2024/01/24 11:43:29;;;;;;;33.17;31.27;;;;;;;;;;5032479;28;20075;-58
2024/01/24 11:45:55;;;;;;;34.63;32.78;;;;;;;;;;5031159;28;20120;-58
2024/01/24 11:48:21;;;;;;;35.88;34.03;;;;;;;;;;5032331;28;20029;-58
2024/01/24 11:51:10;;;;;;;40.45;38.28;;;;;;;;;;5034525;28;20029;-58
2024/01/24 11:53:35;;;;;;;38.22;36.22;;;;;;;;;;5032617;28;20033;-55
2024/01/24 11:56:03;;;;;;;36.80;34.90;;;;;;;;;;5030765;28;20427;-58
2024/01/24 11:58:29;;;;;;;38.78;36.42;;;;;;;;;;5030947;28;20052;-57
2024/01/24 12:01:08;;;;;;;38.13;36.08;;;;;;;;;;5034198;28;20057;-59
2024/01/24 12:03:33;;;;;;;37.83;35.53;;;;;;;;;;5033368;28;20505;-58
2024/01/24 12:06:00;;;;;;;35.92;34.08;;;;;;;;;;5033046;28;20029;-58
2024/01/24 12:08:25;;;;;;;33.75;32.05;;;;;;;;;;5032496;28;20471;-58
2024/01/24 12:10:51;;;;;;;38.47;36.25;;;;;;;;;;5031466;28;20131;-58
2024/01/24 12:13:17;;;;;;;35.85;33.63;;;;;;;;;;5031380;28;20052;-57
2024/01/24 12:15:44;;;;;;;36.72;34.22;;;;;;;;;;5032182;28;20033;-58
2024/01/24 12:18:11;;;;;;;37.17;35.28;;;;;;;;;;5033684;28;20025;-58
2024/01/24 12:20:36;;;;;;;36.03;34.17;;;;;;;;;;5034158;28;20083;-57
2024/01/24 12:23:03;;;;;;;37.53;35.55;;;;;;;;;;5034021;28;20093;-56
2024/01/24 12:25:28;;;;;;;36.63;34.15;;;;;;;;;;5030286;28;20044;-55
2024/01/24 12:27:56;;;;;;;35.60;33.80;;;;;;;;;;5033295;28;20025;-58
2024/01/24 12:30:22;;;;;;;38.08;36.03;;;;;;;;;;5030989;28;20033;-58
2024/01/24 12:32:48;;;;;;;36.33;34.33;;;;;;;;;;5030425;28;20538;-58
2024/01/24 12:35:15;;;;;;;36.38;34.25;;;;;;;;;;5033311;28;20201;-58
2024/01/24 12:37:44;;;;;;;36.58;34.70;;;;;;;;;;5038310;28;20060;-58
2024/01/24 12:40:11;;;;;;;35.85;33.95;;;;;;;;;;5034808;28;20033;-59
2024/01/24 12:42:38;;;;;;;37.67;35.22;;;;;;;;;;5035383;28;20119;-58
2024/01/24 12:45:08;;;;;;;35.85;33.88;;;;;;;;;;5018222;28;20033;-56
2024/01/24 12:47:34;;;;;;;;;;;;;;;;;;5035409;28;20049;-57
2024/01/24 12:50:00;;;;;;;27.75;26.33;;;;;;;;;;5037985;28;19917;-56
2024/01/24 12:52:26;;;;;;;35.63;33.83;;;;;;;;;;5036666;28;20037;-56
2024/01/24 12:54:51;;;;;;;35.85;33.67;;;;;;;;;;5035570;28;20354;-55
2024/01/24 12:57:16;;;;;;;34.55;32.67;;;;;;;;;;5034663;28;20045;-57
2024/01/24 12:59:41;;;;;;;34.50;32.40;;;;;;;;;;5034791;28;20689;-56
2024/01/24 13:02:09;;;;;;;35.20;33.40;;;;;;;;;;5035889;28;20064;-57
2024/01/24 13:04:35;;;;;;;32.67;30.92;;;;;;;;;;5034702;28;20044;-56
2024/01/24 13:07:00;;;;;;;32.78;30.98;;;;;;;;;;5035921;28;20041;-56
2024/01/24 13:09:26;;;;;;;32.97;31.17;;;;;;;;;;5035315;28;20638;-58
2024/01/24 13:11:51;;;;;;;30.95;29.25;;;;;;;;;;5035609;28;20619;-59
2024/01/24 13:14:17;;;;;;;30.45;28.33;;;;;;;;;;5032791;28;20065;-59
2024/01/24 13:16:42;;;;;;;27.02;24.85;;;;;;;;;;5037697;28;20083;-59
2024/01/24 13:19:07;;;;;;;27.08;25.48;;;;;;;;;;5032605;28;20044;-59
2024/01/24 13:21:33;;;;;;;29.17;27.48;;;;;;;;;;5035702;28;20401;-59
2024/01/24 13:24:01;;;;;;;28.83;26.67;;;;;;;;;;5033064;28;20108;-56
2024/01/24 13:26:27;;;;;;;30.15;27.08;;;;;;;;;;5031979;28;20046;-57
2024/01/24 13:28:53;;;;;;;28.92;27.13;;;;;;;;;;5038224;28;20470;-57
2024/01/24 13:31:18;;;;;;;29.13;27.38;;;;;;;;;;5035297;28;20029;-58
2024/01/24 13:33:46;;;;;;;27.83;26.30;;;;;;;;;;5031775;28;20417;-56
2024/01/24 13:36:11;;;;;;;29.27;27.67;;;;;;;;;;5037107;28;20037;-57
2024/01/24 13:38:37;;;;;;;31.80;29.83;;;;;;;;;;5035793;28;20371;-57
2024/01/24 13:41:03;;;;;;;34.05;31.27;;;;;;;;;;5034030;28;20029;-57
2024/01/24 13:43:28;;;;;;;32.20;30.50;;;;;;;;;;5033407;28;20041;-57
2024/01/24 13:45:54;;;;;;;34.63;32.72;;;;;;;;;;5033662;28;20028;-57
2024/01/24 13:48:20;;;;;;;33.30;31.50;;;;;;;;;;5032754;28;20044;-57
2024/01/24 13:50:45;;;;;;;32.42;30.63;;;;;;;;;;5033899;28;20402;-57
2024/01/24 13:53:10;;;;;;;33.90;31.95;;;;;;;;;;5037470;28;20577;-57
2024/01/24 13:55:36;;;;;;;32.60;30.90;;;;;;;;;;5033081;28;20059;-56
2024/01/24 13:58:01;;;;;;;37.08;34.25;;;;;;;;;;5033516;28;20068;-57
2024/01/24 14:00:27;;;;;;;32.80;30.92;;;;;;;;;;5033564;28;20028;-56
2024/01/24 14:02:53;;;;;;;34.30;32.53;;;;;;;;;;5030638;28;20343;-57